Terminal Aerodrome Forecast
Issued by NWS

Home | Current Version | Previous Version | Text Only | Print | Product List | Glossary On
Versions: 1 2 3 4 5 6 7 8 9 10 11 12 13 14 15 16 17 18 19
000
FTUS43 KDLH 260200 AAA
TAFHIB
TAF AMD
KHIB 260223Z 2602/2624 30015G25KT P6SM -SN SCT012 OVC025
     FM260600 32014G22KT P6SM OVC030
     FM261200 34014KT P6SM BKN035
     FM261400 35012KT P6SM SCT040=

USA.gov is the U.S. government's official web portal to all federal, state and local government web resources and services.